Latest Coastal Weather Observations for Coolangatta (QLD)

IDN60701

Issued at 2:51 pm EST Wednesday 19 June 2019 (issued every 10 minutes, with the page automatically refreshed every 10 minutes)

About coastal observations | Map of coastal stations | Coastal observations for NSW | Marine services | Other Formats
Station Details ID: 040717 Name: COOLANGATTA Lat: -28.17 Lon: 153.51 Height: 4.0 m
Data from the previous 72 hours. | See also: Recent months at Coolangatta (QLD)
Date/Time
EST
Wind Sea
Height
m
Swell Vis
km
Cloud Weather Temp
°C
Press
hPa
Rain since
9am
mm
Dir  Spd
kts
Gust
kts
Height
m
Period
s
Dir
19/02:30pm SSE 11 16 - - - - 10 - - 21.7 1017.2 0.0
19/02:00pm SE 12 15 - - - - 10 Partly cloudy - 20.9 1017.1 0.0
19/01:30pm S 7 11 - - - - 10 Partly cloudy - 22.1 1016.9 0.0
19/01:00pm SSE 10 13 - - - - 10 - - 21.7 1017.0 0.0
19/12:30pm SSE 9 13 - - - - 10 - - 21.9 1017.1 0.0
19/12:00pm S 8 11 - - - - 10 - - 21.4 1017.6 0.0
19/11:30am S 8 11 - - - - 10 Partly cloudy - 21.0 1018.1 0.0
19/11:00am S 7 9 - - - - 10 Cloudy - 20.6 1018.6 0.0
19/10:30am S 6 9 - - - - 10 Cloudy - 20.4 1018.8 0.0
19/10:00am S 8 12 - - - - 10 Partly cloudy - 20.1 1018.7 0.0
19/09:30am SSW 7 9 - - - - 10 Partly cloudy - 19.3 1018.6 0.0
19/09:00am S 8 10 - - - - 10 - - 17.3 1018.6 0.0
19/08:30am SSE 7 9 - - - - 10 - - 15.1 1018.4 0.0
19/08:00am S 3 6 - - - - 10 - - 14.1 1018.1 0.0
19/07:30am SW 2 4 - - - - 10 - - 12.8 1017.7 0.0
19/07:00am CALM 0 0 - - - - 10 Partly cloudy - 11.6 1017.3 0.0
19/06:30am CALM 0 0 - - - - 10 Partly cloudy - 11.2 1017.1 0.0
19/06:00am CALM 0 0 - - - - 10 - - 11.4 1016.6 0.0
19/05:32am SW 3 3 - - - - 7 - - 10.7 1016.3 0.0
19/05:30am SW 3 3 - - - - 7 - - 10.8 1016.3 0.0
19/05:00am SW 3 4 - - - - 6 Partly cloudy - 10.1 1016.1 0.0
19/04:30am CALM 0 0 - - - - 10 - - 10.9 1016.0 0.0
19/04:10am CALM 0 0 - - - - 10 - - 11.1 1016.0 0.0
19/04:00am CALM 0 0 - - - - 6 - - 10.6 1015.9 0.0
19/03:45am CALM 0 0 - - - - 6 - - 10.6 1016.0 0.0
19/03:30am CALM 0 0 - - - - 10 - - 11.0 1016.0 0.0
19/03:00am WSW 1 4 - - - - 10 - - 11.9 1016.2 0.0
19/02:30am SW 4 5 - - - - 10 - - 11.8 1016.4 0.0
19/02:00am CALM 0 0 - - - - 10 - - 12.1 1016.5 0.0
19/01:30am SW 3 4 - - - - 10 - - 12.7 1016.7 0.0
19/01:00am WSW 3 5 - - - - 10 - - 12.6 1016.7 0.0
19/12:30am SSW 3 4 - - - - 10 - - 12.6 1016.7 0.0
19/12:00am SW 3 4 - - - - 10 - - 12.7 1016.9 0.0
 
Date/Time
EST
Wind Sea
Height
m
Swell Vis
km
Cloud Weather Temp
°C
Press
hPa
Rain since
9am
mm
Dir  Spd
kts
Gust
kts
Height
m
Period
s
Dir
18/11:30pm SSW 4 5 - - - - 10 - - 13.3 1017.0 0.0
18/11:00pm SW 5 7 - - - - 10 Partly cloudy - 13.6 1017.1 0.0
18/10:30pm SSW 1 3 - - - - 10 Partly cloudy - 13.8 1017.3 0.0
18/10:00pm SW 2 4 - - - - 10 Partly cloudy - 14.6 1017.3 0.0
18/09:30pm CALM 0 0 - - - - 10 Cloudy - 14.7 1017.3 0.0
18/09:00pm SW 5 5 - - - - 10 Cloudy - 15.0 1017.2 0.0
18/08:30pm WSW 4 5 - - - - 10 Partly cloudy - 14.9 1017.2 0.0
18/08:00pm SSE 4 6 - - - - 10 Partly cloudy - 15.7 1017.2 0.0
18/07:30pm WSW 4 5 - - - - 10 Partly cloudy - 16.9 1017.0 0.0
18/07:00pm SW 5 8 - - - - 10 Cloudy - 17.6 1016.8 0.0
18/06:30pm S 5 6 - - - - 10 Partly cloudy - 17.1 1016.6 0.0
18/06:00pm SSE 7 9 - - - - 10 Partly cloudy - 17.3 1016.5 0.0
18/05:30pm SSE 5 6 - - - - 10 Partly cloudy - 18.3 1016.1 0.0
18/05:00pm S 5 6 - - - - 10 Partly cloudy - 18.6 1015.6 0.0
18/04:30pm SSW 6 8 - - - - 10 Partly cloudy - 19.8 1015.2 0.0
18/04:00pm SSW 6 9 - - - - 10 - - 20.7 1015.2 0.0
18/03:30pm S 9 12 - - - - 10 - - 21.1 1015.1 0.0
18/03:00pm S 9 12 - - - - 10 - - 21.6 1015.0 0.0
18/02:30pm S 10 14 - - - - 10 - - 21.6 1015.0 0.0
18/02:00pm S 9 12 - - - - 10 - - 21.7 1015.3 0.0
18/01:30pm SSW 7 11 - - - - 10 Partly cloudy - 22.2 1015.5 0.0
18/01:00pm S 8 10 - - - - 10 Partly cloudy - 21.3 1015.8 0.0
18/12:30pm SSW 7 11 - - - - 10 Cloudy - 22.0 1016.1 0.0
18/12:00pm SSW 7 11 - - - - 10 Mostly clear - 21.9 1016.5 0.0
18/11:30am SSW 7 11 - - - - 10 Partly cloudy - 20.9 1016.9 0.0
18/11:00am SSW 5 8 - - - - 10 Cloudy - 20.4 1017.3 0.0
18/10:30am SW 3 5 - - - - 10 Cloudy - 19.7 1017.7 0.0
18/10:00am SSW 3 5 - - - - 10 Cloudy - 18.9 1017.8 0.0
18/09:30am W 3 5 - - - - 10 Partly cloudy - 17.2 1017.9 0.0
18/09:00am CALM 0 0 - - - - 10 Cloudy - 15.3 1018.0 0.2
18/08:30am W 4 5 - - - - 10 Cloudy - 13.9 1018.0 0.2
18/08:00am S 1 4 - - - - 10 Partly cloudy - 12.3 1017.8 0.2
18/07:30am S 2 4 - - - - 10 - - 11.2 1017.6 0.2
18/07:00am SW 5 7 - - - - 10 - - 9.2 1017.4 0.2
18/06:30am CALM 0 0 - - - - 10 - - 7.8 1017.3 0.2
18/06:00am SW 3 4 - - - - 10 - - 8.3 1017.0 0.2
18/05:30am SW 4 5 - - - - 10 - - 8.2 1016.6 0.2
18/05:00am CALM 0 2 - - - - 10 - - 6.8 1016.3 0.2
18/04:30am SW 1 4 - - - - 10 - - 7.1 1016.2 0.2
18/04:00am SW 1 3 - - - - 10 - - 7.9 1016.1 0.2
18/03:30am SW 4 6 - - - - 10 - - 8.5 1016.1 0.2
18/03:00am SW 4 5 - - - - 10 - - 8.8 1016.0 0.2
18/02:30am CALM 0 0 - - - - 10 - - 8.0 1016.1 0.2
18/02:00am SW 1 3 - - - - 10 - - 9.0 1016.3 0.2
18/01:30am CALM 0 3 - - - - 10 - - 8.9 1016.6 0.2
18/01:00am CALM 0 0 - - - - 10 - - 7.8 1016.7 0.2
18/12:30am SW 4 5 - - - - 10 - - 9.4 1016.7 0.2
18/12:00am SW 2 4 - - - - 10 - - 10.1 1016.9 0.2
 
Date/Time
EST
Wind Sea
Height
m
Swell Vis
km
Cloud Weather Temp
°C
Press
hPa
Rain since
9am
mm
Dir  Spd
kts
Gust
kts
Height
m
Period
s
Dir
17/11:30pm SW 3 5 - - - - 10 - - 10.4 1017.0 0.2
17/11:00pm SW 1 4 - - - - 10 - - 10.2 1017.1 0.2
17/10:30pm SW 3 4 - - - - 10 - - 10.9 1017.2 0.2
17/10:00pm SW 4 5 - - - - 10 - - 10.6 1017.4 0.2
17/09:30pm SW 1 3 - - - - 10 - - 11.0 1017.4 0.2
17/09:00pm WSW 3 5 - - - - 10 - - 11.1 1017.3 0.2
17/08:30pm CALM 0 0 - - - - 10 - - 11.6 1017.3 0.2
17/08:00pm CALM 0 3 - - - - 10 - - 12.3 1017.2 0.2
17/07:30pm SW 6 7 - - - - 10 - - 13.4 1017.0 0.2
17/07:00pm WSW 9 10 - - - - 10 - - 13.0 1016.6 0.2
17/06:30pm WSW 4 6 - - - - 10 - - 13.0 1016.4 0.2
17/06:00pm SSW 3 4 - - - - 10 - - 12.3 1015.9 0.2
17/05:30pm S 5 6 - - - - 10 - - 15.8 1015.5 0.2
17/05:00pm S 7 9 - - - - 10 - - 16.3 1015.3 0.2
17/04:30pm S 9 12 - - - - 10 - - 18.2 1015.0 0.2
17/04:00pm S 8 12 - - - - 10 - - 19.5 1014.9 0.2
17/03:30pm S 9 14 - - - - 10 - - 20.2 1014.6 0.2
17/03:00pm S 7 9 - - - - 10 - - 20.8 1014.4 0.2
17/02:30pm SSE 7 11 - - - - 10 - - 20.9 1014.5 0.2
17/02:00pm SSE 7 10 - - - - 10 - - 20.6 1014.5 0.2
17/01:30pm S 10 15 - - - - 10 - - 21.2 1014.6 0.2
17/01:00pm S 12 16 - - - - 10 - - 21.0 1014.8 0.2
17/12:30pm SSE 10 14 - - - - 10 - - 20.9 1015.0 0.2
17/12:00pm S 10 14 - - - - 10 - - 20.5 1015.3 0.2
17/11:30am S 9 13 - - - - 10 - - 20.9 1015.6 0.2
17/11:00am S 8 11 - - - - 10 - - 20.8 1015.7 0.2
17/10:30am NW 5 7 - - - - 10 - - 20.8 1016.0 0.0
17/10:00am NNW 6 8 - - - - 10 - - 20.3 1016.0 0.0
17/09:30am NW 4 7 - - - - 10 - - 19.6 1016.5 0.0
17/09:00am WNW 5 6 - - - - 10 - - 18.9 1016.7 7.8
17/08:30am NW 1 4 - - - - 10 - - 17.3 1016.5 7.8
17/08:00am NW 2 5 - - - - 10 - - 16.0 1016.4 7.8
17/07:30am WSW 6 8 - - - - 10 - - 15.2 1016.0 7.8
17/07:03am WSW 4 6 - - - - 10 - - 14.6 1015.8 7.8
17/07:00am SW 3 6 - - - - 10 - - 14.6 1015.8 7.8
17/06:34am SW 1 3 - - - - 5 - - 14.9 1015.8 7.8
17/06:30am SW 1 4 - - - - 10 - - 15.4 1015.7 7.8
17/06:23am SW 3 4 - - - - 10 - - 15.3 1015.7 7.8
17/06:00am W 1 3 - - - - 4 Mostly clear - 14.8 1015.4 7.8
17/05:55am CALM 0 3 - - - - 6 - - 15.0 1015.3 7.8
17/05:38am WSW 4 6 - - - - 8 Partly cloudy - 15.3 1015.3 7.8
17/05:30am SW 2 5 - - - - 7 Partly cloudy - 15.2 1015.1 7.8
17/05:20am CALM 0 0 - - - - 6 Partly cloudy - 15.6 1014.9 7.8
17/05:00am SSW 2 4 - - - - 10 Partly cloudy - 16.0 1014.9 7.8
17/04:30am SSW 1 3 - - - - 10 Cloudy - 16.0 1014.9 7.8
17/04:00am SSW 2 6 - - - - 10 Cloudy - 16.2 1014.8 7.8
17/03:30am SW 5 7 - - - - 10 Cloudy - 16.2 1014.8 7.8
17/03:00am W 3 4 - - - - 10 Cloudy Rain 15.9 1014.7 7.6
17/02:30am WSW 4 6 - - - - 10 Cloudy - 16.1 1015.2 7.6
17/02:00am W 4 5 - - - - 10 Partly cloudy - 15.9 1015.2 7.6
17/01:30am CALM 0 0 - - - - 10 Partly cloudy - 15.8 1015.5 7.6
17/01:00am WSW 5 6 - - - - 10 Partly cloudy - 16.3 1015.8 7.6
17/12:30am SW 4 6 - - - - 10 Partly cloudy - 16.5 1015.7 7.6
17/12:00am E 5 6 - - - - 10 Cloudy Rain 16.8 1016.3 7.4
 
Date/Time
EST
Wind Sea
Height
m
Swell Vis
km
Cloud Weather Temp
°C
Press
hPa
Rain since
9am
mm
Dir  Spd
kts
Gust
kts
Height
m
Period
s
Dir
16/11:30pm ENE 4 5 - - - - 10 Partly cloudy - 16.9 1016.4 7.4
16/11:00pm WSW 4 7 - - - - 10 Cloudy - 16.9 1016.6 7.4
16/10:30pm NNW 2 4 - - - - 10 Cloudy - 17.4 1016.7 7.4
16/10:00pm WNW 4 5 - - - - 10 Cloudy - 17.4 1016.7 7.4
16/09:30pm NW 3 7 - - - - 10 Cloudy - 17.7 1016.6 7.4
16/09:00pm NW 7 12 - - - - 10 Cloudy - 17.5 1016.9 7.4
16/08:30pm W 6 7 - - - - 10 Partly cloudy - 16.9 1016.5 7.4
16/08:00pm NW 5 6 - - - - 10 Partly cloudy - 16.9 1016.7 7.4
16/07:30pm WSW 4 6 - - - - 10 Partly cloudy - 17.3 1017.1 7.0
16/07:00pm SW 3 4 - - - - 10 Cloudy - 17.4 1016.8 7.0
16/06:30pm NW 6 8 - - - - 10 Cloudy - 17.7 1016.0 6.8
16/06:00pm NW 8 11 - - - - 10 Cloudy Thunderstorm 17.6 1016.2 6.8
16/05:30pm NW 6 11 - - - - 10 Partly cloudy - 17.5 1016.3 6.8
16/05:21pm W 6 9 - - - - 10 Partly cloudy - 17.6 1016.3 6.6
16/05:13pm NW 8 14 - - - - 8 Partly cloudy - 17.7 1016.4 6.6
16/05:00pm NW 8 15 - - - - 3 Partly cloudy - 18.2 1016.7 5.2
16/04:54pm NW 7 9 - - - - 6 Partly cloudy - 18.6 1016.6 1.6
16/04:40pm NNW 8 11 - - - - 10 Partly cloudy - 19.1 1016.4 0.2
16/04:30pm NNW 7 9 - - - - 10 Partly cloudy - 19.0 1016.1 0.2
16/04:00pm N 6 8 - - - - 10 Partly cloudy - 19.6 1016.0 0.2
16/03:30pm CALM 0 2 - - - - 10 Partly cloudy - 19.9 1015.9 0.2
16/03:00pm CALM 0 0 - - - - 10 Cloudy Rain 19.6 1016.2 0.2

Other formats

Comma delimited format used in spreadsheet applications
http://www.bom.gov.au/fwo/IDN60701/IDN60701.94592.axf

JavaScript Object Notation format (JSON) in row-major order
http://www.bom.gov.au/fwo/IDN60701/IDN60701.94592.json

Data quality

Most of these data are generated automatically and are frequently updated. Quality checks on data are not normally performed. It is possible for incorrect values to appear. Refer to information at About Latest Weather Observations and please check the disclaimer before using these data.